Time,TemperatureF,DewpointF,PressureIn,WindDirection,WindDirectionDegrees,WindSpeedMPH,WindSpeedGustMPH,Humidity,HourlyPrecipIn,Conditions,Clouds,dailyrainin,SoftwareType,DateUTC
2013-04-07 00:03:00,38.1,23.4,30.19,WSW,248,6.0,11.0,55,0.00,,,0.00,meteohub,2013-04-06 23:03:00,
2013-04-07 00:09:00,38.1,23.4,30.19,WSW,248,8.0,11.0,55,0.00,,,0.00,meteohub,2013-04-06 23:09:00,
2013-04-07 00:14:00,38.1,23.4,30.19,WSW,248,7.0,9.0,55,0.00,,,0.00,meteohub,2013-04-06 23:14:00,
2013-04-07 00:20:00,38.3,23.5,30.19,West,270,5.0,8.0,55,0.00,,,0.00,meteohub,2013-04-06 23:20:00,
2013-04-07 00:25:00,38.1,23.0,30.19,WSW,248,6.0,8.0,54,0.00,,,0.00,meteohub,2013-04-06 23:25:00,
2013-04-07 00:32:00,37.9,22.8,30.19,West,270,3.0,8.0,54,0.00,,,0.00,meteohub,2013-04-06 23:32:00,
2013-04-07 00:37:00,37.6,22.1,30.19,WNW,292,1.0,8.0,53,0.00,,,0.00,meteohub,2013-04-06 23:37:00,
2013-04-07 00:42:00,37.4,21.9,30.19,WNW,292,0.0,7.0,53,0.00,,,0.00,meteohub,2013-04-06 23:42:00,
2013-04-07 00:47:00,37.4,21.9,30.19,ENE,68,4.0,4.0,53,0.00,,,0.00,meteohub,2013-04-06 23:47:00,
2013-04-07 00:53:00,37.2,22.1,30.19,ENE,68,3.0,4.0,54,0.00,,,0.00,meteohub,2013-04-06 23:53:00,
2013-04-07 00:58:00,37.0,21.9,30.19,North,0,2.0,4.0,54,0.00,,,0.00,meteohub,2013-04-06 23:58:00,
2013-04-07 01:04:00,37.0,21.9,30.19,NW,315,2.0,5.0,54,0.00,,,0.00,meteohub,2013-04-07 00:04:00,
2013-04-07 01:10:00,36.9,21.7,30.19,NNW,338,3.0,5.0,54,0.00,,,0.00,meteohub,2013-04-07 00:10:00,
2013-04-07 01:16:00,36.7,22.1,30.19,WSW,248,1.0,3.0,55,0.00,,,0.00,meteohub,2013-04-07 00:16:00,
2013-04-07 01:21:00,36.7,22.1,30.19,West,270,3.0,4.0,55,0.00,,,0.00,meteohub,2013-04-07 00:21:00,
2013-04-07 01:26:00,37.0,22.5,30.19,West,270,3.0,6.0,55,0.00,,,0.00,meteohub,2013-04-07 00:26:00,
2013-04-07 01:32:00,37.6,24.6,30.19,North,-999,-999.0,6.0,59,0.00,,,0.00,meteohub,2013-04-07 00:32:00,
2013-04-07 01:37:00,37.9,25.7,30.19,North,-999,-999.0,6.0,61,0.00,,,0.00,meteohub,2013-04-07 00:37:00,
2013-04-07 01:42:00,38.1,25.9,30.19,North,-999,-999.0,-999.0,61,0.00,,,0.00,meteohub,2013-04-07 00:42:00,
2013-04-07 01:47:00,38.3,26.1,30.19,West,270,7.0,7.0,61,0.00,,,0.00,meteohub,2013-04-07 00:47:00,
2013-04-07 01:52:00,38.5,25.9,30.16,WSW,248,9.0,10.0,60,0.00,,,0.00,meteohub,2013-04-07 00:52:00,
2013-04-07 01:58:00,38.5,25.9,30.16,WSW,248,11.0,11.0,60,0.00,,,0.00,meteohub,2013-04-07 00:58:00,
2013-04-07 02:03:00,38.7,26.1,30.16,West,270,9.0,11.0,60,0.00,,,0.00,meteohub,2013-04-07 01:03:00,
2013-04-07 02:08:00,38.5,25.5,30.16,WNW,292,11.0,11.0,59,0.00,,,0.00,meteohub,2013-04-07 01:08:00,
2013-04-07 02:13:00,38.3,25.3,30.16,West,270,3.0,11.0,59,0.00,,,0.00,meteohub,2013-04-07 01:13:00,
2013-04-07 02:19:00,38.1,25.2,30.16,West,270,7.0,11.0,59,0.00,,,0.00,meteohub,2013-04-07 01:19:00,
2013-04-07 02:24:00,38.3,25.7,30.16,West,270,8.0,11.0,60,0.00,,,0.00,meteohub,2013-04-07 01:24:00,
2013-04-07 02:29:00,38.3,26.1,30.16,WSW,248,8.0,10.0,61,0.00,,,0.00,meteohub,2013-04-07 01:29:00,
2013-04-07 02:35:00,38.3,26.1,30.16,WSW,248,4.0,10.0,61,0.00,,,0.00,meteohub,2013-04-07 01:35:00,
2013-04-07 02:40:00,38.3,26.1,30.16,West,270,6.0,10.0,61,0.00,,,0.00,meteohub,2013-04-07 01:40:00,
2013-04-07 02:45:00,38.3,26.1,30.16,West,270,3.0,9.0,61,0.00,,,0.00,meteohub,2013-04-07 01:45:00,
2013-04-07 02:50:00,38.1,25.9,30.16,WNW,292,4.0,9.0,61,0.00,,,0.00,meteohub,2013-04-07 01:50:00,
2013-04-07 02:56:00,37.9,25.3,30.16,NNW,338,3.0,8.0,60,0.00,,,0.00,meteohub,2013-04-07 01:56:00,
2013-04-07 03:01:00,37.6,25.0,30.16,North,0,4.0,6.0,60,0.00,,,0.00,meteohub,2013-04-07 02:01:00,
2013-04-07 03:06:00,37.4,24.4,30.16,NNE,22,3.0,5.0,59,0.00,,,0.00,meteohub,2013-04-07 02:06:00,
2013-04-07 03:12:00,37.2,24.3,30.16,North,0,1.0,5.0,59,0.00,,,0.00,meteohub,2013-04-07 02:12:00,
2013-04-07 03:17:00,37.0,24.1,30.16,NE,45,2.0,4.0,59,0.00,,,0.00,meteohub,2013-04-07 02:17:00,
2013-04-07 03:25:00,37.0,24.1,30.16,NNE,22,3.0,3.0,59,0.00,,,0.00,meteohub,2013-04-07 02:25:00,
2013-04-07 03:31:00,36.7,23.7,30.16,North,0,2.0,4.0,59,0.00,,,0.00,meteohub,2013-04-07 02:31:00,
2013-04-07 03:38:00,36.7,23.7,30.16,North,0,4.0,4.0,59,0.00,,,0.00,meteohub,2013-04-07 02:38:00,
2013-04-07 03:43:00,36.5,23.9,30.16,North,0,0.0,4.0,60,0.00,,,0.00,meteohub,2013-04-07 02:43:00,
2013-04-07 03:49:00,36.3,23.7,30.16,West,270,0.0,4.0,60,0.00,,,0.00,meteohub,2013-04-07 02:49:00,
2013-04-07 03:55:00,36.3,23.7,30.16,WNW,292,0.0,4.0,60,0.00,,,0.00,meteohub,2013-04-07 02:55:00,
2013-04-07 04:00:00,36.3,23.7,30.16,NNW,338,0.0,4.0,60,0.00,,,0.00,meteohub,2013-04-07 03:00:00,
2013-04-07 04:05:00,36.1,23.7,30.16,NNE,22,3.0,3.0,60,0.00,,,0.00,meteohub,2013-04-07 03:05:00,
2013-04-07 04:10:00,36.1,24.1,30.16,North,0,4.0,4.0,61,0.00,,,0.00,meteohub,2013-04-07 03:10:00,
2013-04-07 04:15:00,36.0,23.5,30.16,NNE,22,4.0,5.0,60,0.00,,,0.00,meteohub,2013-04-07 03:15:00,
2013-04-07 04:21:00,36.0,23.9,30.13,NNE,22,3.0,5.0,61,0.00,,,0.00,meteohub,2013-04-07 03:21:00,
2013-04-07 04:28:00,35.8,23.7,30.13,NNE,22,3.0,5.0,61,0.00,,,0.00,meteohub,2013-04-07 03:28:00,
2013-04-07 04:33:00,35.8,23.7,30.13,NNE,22,4.0,4.0,61,0.00,,,0.00,meteohub,2013-04-07 03:33:00,
2013-04-07 04:38:00,35.8,24.1,30.13,NNE,22,4.0,4.0,62,0.00,,,0.00,meteohub,2013-04-07 03:38:00,
2013-04-07 04:43:00,35.8,24.1,30.13,NNE,22,3.0,4.0,62,0.00,,,0.00,meteohub,2013-04-07 03:43:00,
2013-04-07 04:48:00,35.8,24.1,30.13,NNE,22,4.0,4.0,62,0.00,,,0.00,meteohub,2013-04-07 03:48:00,
2013-04-07 04:54:00,35.8,24.4,30.13,NNE,22,4.0,4.0,63,0.00,,,0.00,meteohub,2013-04-07 03:54:00,
2013-04-07 04:59:00,35.6,24.3,30.13,NE,45,3.0,4.0,63,0.00,,,0.00,meteohub,2013-04-07 03:59:00,
2013-04-07 05:00:00,35.6,24.3,30.13,NE,45,3.0,4.0,63,0.00,,,0.00,meteohub,2013-04-07 04:00:00,
2013-04-07 05:01:00,35.6,24.3,30.13,NE,45,3.0,4.0,63,0.00,,,0.00,meteohub,2013-04-07 04:01:00,
2013-04-07 05:02:00,35.6,24.6,30.13,NE,45,2.0,4.0,64,0.00,,,0.00,meteohub,2013-04-07 04:02:00,
2013-04-07 05:08:00,35.6,24.3,30.13,NE,45,3.0,4.0,63,0.00,,,0.00,meteohub,2013-04-07 04:08:00,
2013-04-07 05:13:00,35.6,24.6,30.13,NE,45,2.0,4.0,64,0.00,,,0.00,meteohub,2013-04-07 04:13:00,
2013-04-07 05:19:00,35.6,24.6,30.13,NE,45,3.0,4.0,64,0.00,,,0.00,meteohub,2013-04-07 04:19:00,
2013-04-07 05:20:00,35.6,24.6,30.13,NE,45,3.0,4.0,64,0.00,,,0.00,meteohub,2013-04-07 04:20:00,
2013-04-07 05:25:00,35.6,24.6,30.13,ENE,68,3.0,4.0,64,0.00,,,0.00,meteohub,2013-04-07 04:25:00,
2013-04-07 05:31:00,35.6,24.6,30.13,ENE,68,3.0,4.0,64,0.00,,,0.00,meteohub,2013-04-07 04:31:00,
2013-04-07 05:37:00,35.6,25.0,30.13,ENE,68,3.0,4.0,65,0.00,,,0.00,meteohub,2013-04-07 04:37:00,
2013-04-07 05:43:00,35.6,25.0,30.13,ENE,68,3.0,4.0,65,0.00,,,0.00,meteohub,2013-04-07 04:43:00,
2013-04-07 05:49:00,35.6,25.0,30.13,ENE,68,3.0,4.0,65,0.00,,,0.00,meteohub,2013-04-07 04:49:00,
2013-04-07 05:55:00,35.6,25.0,30.13,ENE,68,2.0,3.0,65,0.00,,,0.00,meteohub,2013-04-07 04:55:00,
2013-04-07 06:00:00,35.6,25.0,30.13,ENE,68,3.0,3.0,65,0.00,,,0.00,meteohub,2013-04-07 05:00:00,
2013-04-07 06:05:00,35.6,25.0,30.13,ENE,68,2.0,3.0,65,0.00,,,0.00,meteohub,2013-04-07 05:05:00,
2013-04-07 06:10:00,35.8,25.5,30.13,NE,45,0.0,3.0,66,0.00,,,0.00,meteohub,2013-04-07 05:10:00,
2013-04-07 06:15:00,35.8,25.5,30.13,NE,45,0.0,3.0,66,0.00,,,0.00,meteohub,2013-04-07 05:15:00,
2013-04-07 06:21:00,35.8,25.5,30.13,NE,45,0.0,2.0,66,0.00,,,0.00,meteohub,2013-04-07 05:21:00,
2013-04-07 06:26:00,35.8,25.9,30.13,NE,45,0.0,0.0,67,0.00,,,0.00,meteohub,2013-04-07 05:26:00,
2013-04-07 06:32:00,35.6,25.7,30.13,East,90,0.0,0.0,67,0.00,,,0.00,meteohub,2013-04-07 05:32:00,
2013-04-07 06:37:00,35.6,25.7,30.13,NE,45,0.0,0.0,67,0.00,,,0.00,meteohub,2013-04-07 05:37:00,
2013-04-07 06:42:00,35.8,26.2,30.13,NE,45,2.0,0.0,68,0.00,,,0.00,meteohub,2013-04-07 05:42:00,
2013-04-07 06:47:00,35.8,26.2,30.13,NE,45,2.0,3.0,68,0.00,,,0.00,meteohub,2013-04-07 05:47:00,
2013-04-07 06:53:00,35.8,26.6,30.13,NE,45,0.0,3.0,69,0.00,,,0.00,meteohub,2013-04-07 05:53:00,
2013-04-07 06:58:00,36.0,26.8,30.13,NE,45,0.0,3.0,69,0.00,,,0.00,meteohub,2013-04-07 05:58:00,
2013-04-07 07:03:00,36.1,27.0,30.13,NE,45,0.0,3.0,69,0.00,,,0.00,meteohub,2013-04-07 06:03:00,
2013-04-07 07:08:00,36.1,27.3,30.13,NE,45,0.0,3.0,70,0.00,,,0.00,meteohub,2013-04-07 06:08:00,
2013-04-07 07:14:00,36.3,27.5,30.13,NE,45,0.0,2.0,70,0.00,,,0.00,meteohub,2013-04-07 06:14:00,
2013-04-07 07:19:00,36.5,28.0,30.13,NE,45,0.0,2.0,71,0.00,,,0.00,meteohub,2013-04-07 06:19:00,
2013-04-07 07:24:00,36.5,28.0,30.13,NNE,22,2.0,2.0,71,0.00,,,0.00,meteohub,2013-04-07 06:24:00,
2013-04-07 07:30:00,36.7,28.2,30.13,NNE,22,0.0,3.0,71,0.00,,,0.00,meteohub,2013-04-07 06:30:00,
2013-04-07 07:35:00,36.9,28.8,30.13,NNE,22,3.0,3.0,72,0.00,,,0.00,meteohub,2013-04-07 06:35:00,
2013-04-07 07:41:00,36.9,28.8,30.13,NNE,22,2.0,3.0,72,0.00,,,0.00,meteohub,2013-04-07 06:41:00,
2013-04-07 07:46:00,36.9,28.8,30.13,NE,45,3.0,3.0,72,0.00,,,0.00,meteohub,2013-04-07 06:46:00,
2013-04-07 07:51:00,37.0,28.9,30.13,ENE,68,2.0,4.0,72,0.00,,,0.00,meteohub,2013-04-07 06:51:00,
2013-04-07 07:56:00,37.0,28.9,30.13,ENE,68,2.0,4.0,72,0.00,,,0.00,meteohub,2013-04-07 06:56:00,
2013-04-07 08:01:00,37.2,29.1,30.13,East,90,3.0,4.0,72,0.00,,,0.00,meteohub,2013-04-07 07:01:00,
2013-04-07 08:07:00,37.4,29.3,30.13,ESE,112,4.0,4.0,72,0.00,,,0.00,meteohub,2013-04-07 07:07:00,
2013-04-07 08:13:00,37.6,29.5,30.13,East,90,3.0,4.0,72,0.00,,,0.00,meteohub,2013-04-07 07:13:00,
2013-04-07 08:18:00,37.8,29.7,30.13,East,90,3.0,4.0,72,0.00,,,0.00,meteohub,2013-04-07 07:18:00,
2013-04-07 08:23:00,37.8,29.7,30.13,East,90,4.0,5.0,72,0.00,,,0.00,meteohub,2013-04-07 07:23:00,
2013-04-07 08:29:00,37.9,30.0,30.13,East,90,4.0,5.0,73,0.00,,,0.00,meteohub,2013-04-07 07:29:00,
2013-04-07 08:35:00,38.1,30.2,30.13,ENE,68,4.0,5.0,73,0.00,,,0.00,meteohub,2013-04-07 07:35:00,
2013-04-07 08:40:00,38.3,30.4,30.13,East,90,3.0,5.0,73,0.00,,,0.00,meteohub,2013-04-07 07:40:00,
2013-04-07 08:45:00,38.5,30.6,30.13,SE,135,3.0,5.0,73,0.00,,,0.00,meteohub,2013-04-07 07:45:00,
2013-04-07 08:50:00,38.5,30.6,30.13,East,90,3.0,4.0,73,0.00,,,0.00,meteohub,2013-04-07 07:50:00,
2013-04-07 08:55:00,38.7,30.7,30.13,ESE,112,3.0,4.0,73,0.00,,,0.00,meteohub,2013-04-07 07:55:00,
2013-04-07 09:00:00,38.8,30.9,30.13,SSE,158,2.0,4.0,73,0.00,,,0.00,meteohub,2013-04-07 08:00:00,
2013-04-07 09:08:00,38.8,30.9,30.13,South,180,2.0,4.0,73,0.00,,,0.00,meteohub,2013-04-07 08:08:00,
2013-04-07 09:13:00,39.0,31.1,30.13,SE,135,0.0,4.0,73,0.00,,,0.00,meteohub,2013-04-07 08:13:00,
2013-04-07 09:19:00,39.2,31.3,30.13,SSE,158,4.0,4.0,73,0.00,,,0.00,meteohub,2013-04-07 08:19:00,
2013-04-07 09:24:00,39.4,31.5,30.13,SSE,158,3.0,4.0,73,0.00,,,0.00,meteohub,2013-04-07 08:24:00,
2013-04-07 09:30:00,39.4,31.8,30.13,SSE,158,5.0,6.0,74,0.00,,,0.00,meteohub,2013-04-07 08:30:00,
2013-04-07 09:35:00,39.4,32.2,30.13,SSE,158,3.0,6.0,75,0.00,,,0.00,meteohub,2013-04-07 08:35:00,
2013-04-07 09:40:00,39.4,32.2,30.13,SSE,158,4.0,6.0,75,0.00,,,0.00,meteohub,2013-04-07 08:40:00,
2013-04-07 09:45:00,39.4,32.2,30.13,SSE,158,3.0,6.0,75,0.00,,,0.00,meteohub,2013-04-07 08:45:00,
2013-04-07 09:51:00,39.4,31.8,30.13,SE,135,3.0,5.0,74,0.00,,,0.00,meteohub,2013-04-07 08:51:00,
2013-04-07 09:56:00,39.4,31.5,30.13,SE,135,4.0,6.0,73,0.00,,,0.00,meteohub,2013-04-07 08:56:00,
2013-04-07 10:02:00,39.4,31.5,30.13,East,90,3.0,6.0,73,0.00,,,0.00,meteohub,2013-04-07 09:02:00,
2013-04-07 10:07:00,39.4,31.1,30.13,ESE,112,3.0,6.0,72,0.00,,,0.00,meteohub,2013-04-07 09:07:00,
2013-04-07 10:12:00,39.6,31.3,30.13,East,90,2.0,4.0,72,0.00,,,0.00,meteohub,2013-04-07 09:12:00,
2013-04-07 10:17:00,39.6,31.3,30.13,ESE,112,3.0,4.0,72,0.00,,,0.00,meteohub,2013-04-07 09:17:00,
2013-04-07 10:22:00,39.6,31.3,30.16,ESE,112,3.0,4.0,72,0.00,,,0.00,meteohub,2013-04-07 09:22:00,
2013-04-07 10:27:00,39.6,30.9,30.16,East,90,3.0,4.0,71,0.00,,,0.00,meteohub,2013-04-07 09:27:00,
2013-04-07 10:32:00,39.6,30.9,30.16,East,90,3.0,4.0,71,0.00,,,0.00,meteohub,2013-04-07 09:32:00,
2013-04-07 10:37:00,39.6,30.9,30.16,ESE,112,3.0,4.0,71,0.00,,,0.00,meteohub,2013-04-07 09:37:00,
2013-04-07 10:42:00,39.6,30.9,30.16,SE,135,0.0,4.0,71,0.00,,,0.00,meteohub,2013-04-07 09:42:00,
2013-04-07 10:48:00,39.7,30.7,30.16,ESE,112,3.0,4.0,70,0.00,,,0.00,meteohub,2013-04-07 09:48:00,
2013-04-07 10:53:00,39.7,30.7,30.16,ESE,112,2.0,4.0,70,0.00,,,0.00,meteohub,2013-04-07 09:53:00,
2013-04-07 10:58:00,39.7,30.7,30.16,East,90,4.0,4.0,70,0.00,,,0.00,meteohub,2013-04-07 09:58:00,
2013-04-07 11:04:00,39.7,30.7,30.16,East,90,4.0,4.0,70,0.00,,,0.00,meteohub,2013-04-07 10:04:00,
2013-04-07 11:09:00,39.6,30.9,30.16,ENE,68,7.0,7.0,71,0.00,,,0.00,meteohub,2013-04-07 10:09:00,
2013-04-07 11:15:00,39.4,30.7,30.16,East,90,6.0,10.0,71,0.00,,,0.00,meteohub,2013-04-07 10:15:00,
2013-04-07 11:20:00,39.2,30.6,30.16,NE,45,6.0,10.0,71,0.00,,,0.00,meteohub,2013-04-07 10:20:00,
2013-04-07 11:25:00,38.7,30.4,30.16,NE,45,10.0,11.0,72,0.00,,,0.00,meteohub,2013-04-07 10:25:00,
2013-04-07 11:30:00,38.5,30.6,30.16,NE,45,8.0,11.0,73,0.00,,,0.00,meteohub,2013-04-07 10:30:00,
2013-04-07 11:35:00,38.3,30.4,30.16,ENE,68,8.0,11.0,73,0.00,,,0.00,meteohub,2013-04-07 10:35:00,
2013-04-07 11:41:00,38.1,30.9,30.16,NE,45,6.0,11.0,75,0.00,,,0.00,meteohub,2013-04-07 10:41:00,
2013-04-07 11:46:00,38.3,31.1,30.16,ENE,68,6.0,11.0,75,0.00,,,0.00,meteohub,2013-04-07 10:46:00,
2013-04-07 11:52:00,38.3,31.5,30.16,ENE,68,5.0,10.0,76,0.00,,,0.00,meteohub,2013-04-07 10:52:00,
2013-04-07 11:57:00,38.3,31.5,30.16,ENE,68,9.0,11.0,76,0.00,,,0.00,meteohub,2013-04-07 10:57:00,
2013-04-07 12:02:00,38.3,31.8,30.16,NE,45,6.0,11.0,77,0.00,,,0.00,meteohub,2013-04-07 11:02:00,
2013-04-07 12:07:00,38.1,31.6,30.16,NE,45,8.0,13.0,77,0.00,,,0.00,meteohub,2013-04-07 11:07:00,
2013-04-07 12:13:00,38.5,32.0,30.16,East,90,10.0,13.0,77,0.00,,,0.00,meteohub,2013-04-07 11:13:00,
2013-04-07 12:19:00,38.5,32.0,30.13,East,90,8.0,13.0,77,0.00,,,0.00,meteohub,2013-04-07 11:19:00,
2013-04-07 12:24:00,38.5,32.2,30.13,ENE,68,13.0,13.0,78,0.00,,,0.00,meteohub,2013-04-07 11:24:00,
2013-04-07 12:29:00,38.5,32.2,30.13,East,90,9.0,13.0,78,0.00,,,0.00,meteohub,2013-04-07 11:29:00,
2013-04-07 12:34:00,38.3,32.0,30.13,ENE,68,8.0,13.0,78,0.00,,,0.00,meteohub,2013-04-07 11:34:00,
2013-04-07 12:39:00,38.5,32.2,30.13,ENE,68,6.0,13.0,78,0.00,,,0.00,meteohub,2013-04-07 11:39:00,
2013-04-07 12:45:00,38.5,32.2,30.13,NE,45,11.0,14.0,78,0.00,,,0.00,meteohub,2013-04-07 11:45:00,
2013-04-07 12:50:00,38.5,32.2,30.13,ENE,68,13.0,15.0,78,0.00,,,0.00,meteohub,2013-04-07 11:50:00,
2013-04-07 12:57:00,38.3,32.0,30.13,East,90,8.0,15.0,78,0.00,,,0.00,meteohub,2013-04-07 11:57:00,
2013-04-07 13:02:00,38.5,32.2,30.13,NE,45,8.0,15.0,78,0.00,,,0.00,meteohub,2013-04-07 12:02:00,
2013-04-07 13:08:00,38.5,32.2,30.13,ENE,68,10.0,13.0,78,0.00,,,0.00,meteohub,2013-04-07 12:08:00,
2013-04-07 13:13:00,38.5,32.2,30.13,ENE,68,8.0,13.0,78,0.00,,,0.00,meteohub,2013-04-07 12:13:00,
2013-04-07 13:18:00,38.5,32.2,30.13,ENE,68,11.0,13.0,78,0.00,,,0.00,meteohub,2013-04-07 12:18:00,
2013-04-07 13:23:00,38.5,32.2,30.13,ENE,68,10.0,13.0,78,0.00,,,0.00,meteohub,2013-04-07 12:23:00,
2013-04-07 13:28:00,38.7,32.7,30.13,ENE,68,11.0,14.0,79,0.00,,,0.00,meteohub,2013-04-07 12:28:00,
2013-04-07 13:33:00,38.7,32.7,30.13,NE,45,10.0,14.0,79,0.00,,,0.00,meteohub,2013-04-07 12:33:00,
2013-04-07 13:39:00,38.8,32.9,30.13,NE,45,10.0,14.0,79,0.00,,,0.00,meteohub,2013-04-07 12:39:00,
2013-04-07 13:44:00,38.8,32.9,30.13,NE,45,13.0,13.0,79,0.00,,,0.00,meteohub,2013-04-07 12:44:00,
2013-04-07 13:49:00,39.2,32.9,30.13,NE,45,13.0,13.0,78,0.00,,,0.00,meteohub,2013-04-07 12:49:00,
2013-04-07 13:55:00,39.4,33.1,30.13,NE,45,11.0,14.0,78,0.00,,,0.00,meteohub,2013-04-07 12:55:00,
2013-04-07 14:01:00,39.6,33.3,30.13,ENE,68,13.0,14.0,78,0.00,,,0.00,meteohub,2013-04-07 13:01:00,
2013-04-07 14:06:00,39.7,33.1,30.10,ENE,68,8.0,16.0,77,0.00,,,0.00,meteohub,2013-04-07 13:06:00,
2013-04-07 14:12:00,39.9,33.1,30.10,ENE,68,9.0,16.0,76,0.00,,,0.00,meteohub,2013-04-07 13:12:00,
2013-04-07 14:17:00,40.3,33.3,30.10,ENE,68,11.0,16.0,76,0.00,,,0.00,meteohub,2013-04-07 13:17:00,
2013-04-07 14:23:00,40.5,33.4,30.10,East,90,9.0,15.0,76,0.00,,,0.00,meteohub,2013-04-07 13:23:00,
2013-04-07 14:28:00,40.6,33.1,30.10,ENE,68,13.0,15.0,74,0.00,,,0.00,meteohub,2013-04-07 13:28:00,
2013-04-07 14:33:00,41.0,33.1,30.10,NE,45,8.0,14.0,73,0.00,,,0.00,meteohub,2013-04-07 13:33:00,
2013-04-07 14:39:00,41.5,33.6,30.10,NE,45,11.0,13.0,73,0.00,,,0.00,meteohub,2013-04-07 13:39:00,
2013-04-07 14:45:00,41.5,32.5,30.10,NE,45,13.0,14.0,70,0.00,,,0.00,meteohub,2013-04-07 13:45:00,
2013-04-07 14:50:00,41.5,32.5,30.13,East,90,10.0,15.0,70,0.00,,,0.00,meteohub,2013-04-07 13:50:00,
2013-04-07 14:55:00,41.2,31.5,30.13,ENE,68,8.0,15.0,68,0.00,,,0.00,meteohub,2013-04-07 13:55:00,
2013-04-07 15:00:00,41.2,31.5,30.13,ENE,68,13.0,15.0,68,0.00,,,0.00,meteohub,2013-04-07 14:00:00,
2013-04-07 15:05:00,41.2,31.5,30.10,ENE,68,13.0,14.0,68,0.00,,,0.00,meteohub,2013-04-07 14:05:00,
2013-04-07 15:10:00,41.2,31.1,30.10,ENE,68,10.0,15.0,67,0.00,,,0.00,meteohub,2013-04-07 14:10:00,
2013-04-07 15:16:00,41.2,31.5,30.10,ENE,68,8.0,15.0,68,0.00,,,0.00,meteohub,2013-04-07 14:16:00,
2013-04-07 15:21:00,41.0,30.9,30.10,ENE,68,12.0,16.0,67,0.00,,,0.00,meteohub,2013-04-07 14:21:00,
2013-04-07 15:27:00,41.0,31.3,30.10,ENE,68,10.0,16.0,68,0.00,,,0.00,meteohub,2013-04-07 14:27:00,
2013-04-07 15:32:00,41.0,31.3,30.10,ENE,68,12.0,16.0,68,0.00,,,0.00,meteohub,2013-04-07 14:32:00,
2013-04-07 15:37:00,40.8,31.1,30.10,NE,45,8.0,16.0,68,0.00,,,0.00,meteohub,2013-04-07 14:37:00,
2013-04-07 15:42:00,40.6,30.6,30.10,ENE,68,15.0,15.0,67,0.00,,,0.00,meteohub,2013-04-07 14:42:00,
2013-04-07 15:48:00,40.6,30.9,30.10,NE,45,13.0,15.0,68,0.00,,,0.00,meteohub,2013-04-07 14:48:00,
2013-04-07 15:53:00,40.5,30.7,30.10,ENE,68,13.0,15.0,68,0.00,,,0.00,meteohub,2013-04-07 14:53:00,
2013-04-07 15:58:00,40.5,30.7,30.10,NE,45,13.0,15.0,68,0.00,,,0.00,meteohub,2013-04-07 14:58:00,
2013-04-07 16:03:00,40.5,30.7,30.07,NE,45,11.0,21.0,68,0.00,,,0.00,meteohub,2013-04-07 15:03:00,
2013-04-07 16:09:00,40.3,30.6,30.07,NE,45,12.0,21.0,68,0.00,,,0.00,meteohub,2013-04-07 15:09:00,
2013-04-07 16:15:00,40.3,30.6,30.07,ENE,68,15.0,18.0,68,0.00,,,0.00,meteohub,2013-04-07 15:15:00,
2013-04-07 16:21:00,40.5,30.7,30.07,ENE,68,13.0,18.0,68,0.00,,,0.00,meteohub,2013-04-07 15:21:00,
2013-04-07 16:27:00,40.5,30.4,30.07,NE,45,15.0,17.0,67,0.00,,,0.00,meteohub,2013-04-07 15:27:00,
2013-04-07 16:32:00,40.3,29.8,30.07,ENE,68,11.0,16.0,66,0.00,,,0.00,meteohub,2013-04-07 15:32:00,
2013-04-07 16:37:00,40.3,29.5,30.07,NE,45,11.0,16.0,65,0.00,,,0.00,meteohub,2013-04-07 15:37:00,
2013-04-07 16:42:00,40.1,29.3,30.07,NE,45,17.0,20.0,65,0.00,,,0.00,meteohub,2013-04-07 15:42:00,
2013-04-07 16:47:00,39.9,28.8,30.07,NE,45,14.0,20.0,64,0.00,,,0.00,meteohub,2013-04-07 15:47:00,
2013-04-07 16:53:00,39.7,28.9,30.07,NE,45,15.0,20.0,65,0.00,,,0.00,meteohub,2013-04-07 15:53:00,
2013-04-07 16:58:00,39.6,28.8,30.07,NE,45,11.0,19.0,65,0.00,,,0.00,meteohub,2013-04-07 15:58:00,
2013-04-07 17:04:00,39.6,29.1,30.07,ENE,68,13.0,19.0,66,0.00,,,0.00,meteohub,2013-04-07 16:04:00,
2013-04-07 17:09:00,39.6,29.1,30.07,NE,45,12.0,19.0,66,0.00,,,0.00,meteohub,2013-04-07 16:09:00,
2013-04-07 17:14:00,39.6,29.1,30.07,NE,45,18.0,18.0,66,0.00,,,0.00,meteohub,2013-04-07 16:14:00,
2013-04-07 17:20:00,39.2,28.8,30.07,NE,45,14.0,19.0,66,0.00,,,0.00,meteohub,2013-04-07 16:20:00,
2013-04-07 17:25:00,39.2,28.8,30.07,NE,45,8.0,19.0,66,0.00,,,0.00,meteohub,2013-04-07 16:25:00,
2013-04-07 17:30:00,39.0,28.6,30.07,NE,45,11.0,19.0,66,0.00,,,0.00,meteohub,2013-04-07 16:30:00,
2013-04-07 17:35:00,39.0,28.6,30.07,East,90,10.0,19.0,66,0.00,,,0.00,meteohub,2013-04-07 16:35:00,
2013-04-07 17:41:00,39.0,28.9,30.07,ENE,68,15.0,19.0,67,0.00,,,0.00,meteohub,2013-04-07 16:41:00,
2013-04-07 17:46:00,39.2,29.1,30.07,ENE,68,15.0,18.0,67,0.00,,,0.00,meteohub,2013-04-07 16:46:00,
2013-04-07 17:51:00,39.0,28.9,30.04,NNE,22,13.0,19.0,67,0.00,,,0.00,meteohub,2013-04-07 16:51:00,
2013-04-07 17:57:00,38.8,28.9,30.04,NE,45,15.0,20.0,67,0.00,,,0.00,meteohub,2013-04-07 16:57:00,
2013-04-07 18:03:00,38.7,29.1,30.04,NE,45,12.0,20.0,68,0.00,,,0.00,meteohub,2013-04-07 17:03:00,
2013-04-07 18:09:00,38.7,29.1,30.04,ENE,68,15.0,20.0,68,0.00,,,0.00,meteohub,2013-04-07 17:09:00,
2013-04-07 18:14:00,38.5,28.9,30.04,NE,45,12.0,19.0,68,0.00,,,0.00,meteohub,2013-04-07 17:14:00,
2013-04-07 18:20:00,38.3,28.8,30.04,NE,45,15.0,18.0,68,0.00,,,0.00,meteohub,2013-04-07 17:20:00,
2013-04-07 18:25:00,38.1,28.9,30.04,NE,45,16.0,18.0,69,0.00,,,0.00,meteohub,2013-04-07 17:25:00,
2013-04-07 18:31:00,37.9,28.8,30.04,ENE,68,8.0,20.0,69,0.00,,,0.00,meteohub,2013-04-07 17:31:00,
2013-04-07 18:37:00,37.8,28.9,30.04,NE,45,15.0,20.0,70,0.00,,,0.00,meteohub,2013-04-07 17:37:00,
2013-04-07 18:42:00,37.8,28.9,30.04,NE,45,10.0,20.0,70,0.00,,,0.00,meteohub,2013-04-07 17:42:00,
2013-04-07 18:48:00,37.6,29.1,30.04,ENE,68,13.0,15.0,71,0.00,,,0.00,meteohub,2013-04-07 17:48:00,
2013-04-07 18:53:00,37.4,29.3,30.04,NE,45,11.0,19.0,72,0.00,,,0.00,meteohub,2013-04-07 17:53:00,
2013-04-07 18:58:00,37.4,29.3,30.04,NE,45,13.0,19.0,72,0.00,,,0.00,meteohub,2013-04-07 17:58:00,
2013-04-07 19:04:00,37.2,29.3,30.04,NE,45,15.0,19.0,73,0.00,,,0.00,meteohub,2013-04-07 18:04:00,
2013-04-07 19:10:00,37.2,29.3,30.04,NE,45,12.0,18.0,73,0.00,,,0.00,meteohub,2013-04-07 18:10:00,
2013-04-07 19:15:00,37.2,29.3,30.04,ENE,68,12.0,18.0,73,0.00,,,0.00,meteohub,2013-04-07 18:15:00,
2013-04-07 19:20:00,37.2,29.7,30.04,NE,45,15.0,18.0,74,0.00,,,0.00,meteohub,2013-04-07 18:20:00,
2013-04-07 19:25:00,37.0,29.5,30.04,NE,45,13.0,18.0,74,0.00,,,0.00,meteohub,2013-04-07 18:25:00,
2013-04-07 19:31:00,37.0,29.5,30.04,NE,45,13.0,18.0,74,0.00,,,0.00,meteohub,2013-04-07 18:31:00,
2013-04-07 19:37:00,37.0,29.5,30.04,NNE,22,10.0,18.0,74,0.00,,,0.00,meteohub,2013-04-07 18:37:00,
2013-04-07 19:42:00,37.0,29.5,30.04,East,90,12.0,16.0,74,0.00,,,0.00,meteohub,2013-04-07 18:42:00,
2013-04-07 19:48:00,37.0,29.5,30.04,NE,45,15.0,15.0,74,0.00,,,0.00,meteohub,2013-04-07 18:48:00,
2013-04-07 19:54:00,36.9,29.3,30.04,NE,45,13.0,15.0,74,0.00,,,0.00,meteohub,2013-04-07 18:54:00,
2013-04-07 20:00:00,36.9,29.3,30.04,NE,45,7.0,15.0,74,0.00,,,0.00,meteohub,2013-04-07 19:00:00,
2013-04-07 20:05:00,36.9,29.7,30.04,NE,45,13.0,15.0,75,0.00,,,0.00,meteohub,2013-04-07 19:05:00,
2013-04-07 20:10:00,36.9,29.7,30.04,NE,45,14.0,15.0,75,0.00,,,0.00,meteohub,2013-04-07 19:10:00,
2013-04-07 20:15:00,36.9,29.7,30.04,NE,45,12.0,15.0,75,0.00,,,0.00,meteohub,2013-04-07 19:15:00,
2013-04-07 20:21:00,36.9,30.0,30.04,NE,45,13.0,17.0,76,0.00,,,0.00,meteohub,2013-04-07 19:21:00,
2013-04-07 20:27:00,36.9,30.0,30.04,NE,45,15.0,17.0,76,0.00,,,0.00,meteohub,2013-04-07 19:27:00,
2013-04-07 20:32:00,36.7,29.8,30.04,ENE,68,11.0,17.0,76,0.00,,,0.00,meteohub,2013-04-07 19:32:00,
2013-04-07 20:37:00,36.7,30.2,30.04,NE,45,9.0,16.0,77,0.00,,,0.00,meteohub,2013-04-07 19:37:00,
2013-04-07 20:43:00,36.7,30.2,30.04,NE,45,13.0,16.0,77,0.00,,,0.00,meteohub,2013-04-07 19:43:00,
2013-04-07 20:49:00,36.5,30.0,30.04,NE,45,11.0,16.0,77,0.00,,,0.00,meteohub,2013-04-07 19:49:00,
2013-04-07 20:54:00,36.5,30.0,30.04,NE,45,10.0,15.0,77,0.00,,,0.00,meteohub,2013-04-07 19:54:00,
2013-04-07 21:01:00,36.3,30.2,30.04,NE,45,11.0,15.0,78,0.00,,,0.00,meteohub,2013-04-07 20:01:00,
2013-04-07 21:06:00,36.3,30.2,30.04,ENE,68,8.0,15.0,78,0.00,,,0.00,meteohub,2013-04-07 20:06:00,
2013-04-07 21:11:00,36.3,30.2,30.04,NE,45,10.0,15.0,78,0.00,,,0.00,meteohub,2013-04-07 20:11:00,
2013-04-07 21:16:00,36.3,30.2,30.04,ENE,68,11.0,17.0,78,0.00,,,0.00,meteohub,2013-04-07 20:16:00,
2013-04-07 21:22:00,36.3,30.2,30.04,NE,45,15.0,17.0,78,0.00,,,0.00,meteohub,2013-04-07 20:22:00,
2013-04-07 21:27:00,36.3,30.2,30.04,NE,45,13.0,17.0,78,0.00,,,0.00,meteohub,2013-04-07 20:27:00,
2013-04-07 21:32:00,36.3,30.2,30.04,NE,45,11.0,16.0,78,0.00,,,0.00,meteohub,2013-04-07 20:32:00,
2013-04-07 21:37:00,36.3,30.2,30.04,East,90,10.0,16.0,78,0.00,,,0.00,meteohub,2013-04-07 20:37:00,
2013-04-07 21:42:00,36.3,30.2,30.04,ENE,68,12.0,15.0,78,0.00,,,0.00,meteohub,2013-04-07 20:42:00,
2013-04-07 21:48:00,36.1,30.2,30.04,NE,45,8.0,17.0,79,0.00,,,0.00,meteohub,2013-04-07 20:48:00,
2013-04-07 21:54:00,36.1,30.0,30.04,NNE,22,11.0,17.0,78,0.00,,,0.00,meteohub,2013-04-07 20:54:00,
2013-04-07 21:59:00,36.1,30.2,30.04,East,90,9.0,18.0,79,0.00,,,0.00,meteohub,2013-04-07 20:59:00,
2013-04-07 22:04:00,36.1,30.2,30.01,ENE,68,13.0,18.0,79,0.00,,,0.00,meteohub,2013-04-07 21:04:00,
2013-04-07 22:09:00,36.1,30.2,30.01,NE,45,11.0,18.0,79,0.00,,,0.00,meteohub,2013-04-07 21:09:00,
2013-04-07 22:15:00,36.1,30.2,30.01,NE,45,13.0,15.0,79,0.00,,,0.00,meteohub,2013-04-07 21:15:00,
2013-04-07 22:21:00,36.1,30.2,30.01,NE,45,14.0,17.0,79,0.00,,,0.00,meteohub,2013-04-07 21:21:00,
2013-04-07 22:26:00,36.1,30.2,30.01,East,90,15.0,18.0,79,0.00,,,0.00,meteohub,2013-04-07 21:26:00,
2013-04-07 22:31:00,36.1,30.2,30.01,ENE,68,11.0,18.0,79,0.00,,,0.00,meteohub,2013-04-07 21:31:00,
2013-04-07 22:36:00,36.1,30.2,30.01,ENE,68,10.0,18.0,79,0.00,,,0.00,meteohub,2013-04-07 21:36:00,
2013-04-07 22:42:00,36.1,30.2,30.01,ENE,68,9.0,17.0,79,0.00,,,0.00,meteohub,2013-04-07 21:42:00,
2013-04-07 22:47:00,36.1,30.2,30.01,ENE,68,10.0,16.0,79,0.00,,,0.00,meteohub,2013-04-07 21:47:00,
2013-04-07 22:53:00,36.1,30.2,30.01,ENE,68,13.0,16.0,79,0.00,,,0.00,meteohub,2013-04-07 21:53:00,
2013-04-07 22:58:00,36.1,30.2,30.01,ENE,68,11.0,16.0,79,0.00,,,0.00,meteohub,2013-04-07 21:58:00,
2013-04-07 23:03:00,36.1,30.2,30.01,ENE,68,9.0,15.0,79,0.00,,,0.00,meteohub,2013-04-07 22:03:00,
2013-04-07 23:08:00,36.1,30.2,30.01,ENE,68,8.0,14.0,79,0.00,,,0.00,meteohub,2013-04-07 22:08:00,
2013-04-07 23:14:00,36.3,30.4,30.01,NE,45,10.0,14.0,79,0.00,,,0.00,meteohub,2013-04-07 22:14:00,
2013-04-07 23:19:00,36.3,30.4,30.01,ENE,68,14.0,14.0,79,0.00,,,0.00,meteohub,2013-04-07 22:19:00,
2013-04-07 23:24:00,36.3,30.2,30.01,ENE,68,9.0,17.0,78,0.00,,,0.00,meteohub,2013-04-07 22:24:00,
2013-04-07 23:30:00,36.3,30.2,30.01,NE,45,8.0,17.0,78,0.00,,,0.00,meteohub,2013-04-07 22:30:00,
2013-04-07 23:35:00,36.3,30.2,29.99,East,90,11.0,18.0,78,0.00,,,0.00,meteohub,2013-04-07 22:35:00,
2013-04-07 23:40:00,36.3,30.2,29.99,NE,45,10.0,18.0,78,0.00,,,0.00,meteohub,2013-04-07 22:40:00,
2013-04-07 23:45:00,36.5,30.0,29.99,ENE,68,13.0,18.0,77,0.00,,,0.00,meteohub,2013-04-07 22:45:00,
2013-04-07 23:50:00,36.5,30.0,30.01,ENE,68,12.0,17.0,77,0.00,,,0.00,meteohub,2013-04-07 22:50:00,
2013-04-07 23:55:00,36.5,30.0,30.01,ENE,68,10.0,17.0,77,0.00,,,0.00,meteohub,2013-04-07 22:55:00,